createdAt,value
2018-11-22T00:00:56.141Z,992.47
2018-11-22T00:01:56.132Z,992.45
2018-11-22T00:02:56.134Z,992.46
2018-11-22T00:03:56.112Z,992.48
2018-11-22T00:04:56.103Z,992.46
2018-11-22T00:05:56.101Z,992.49
2018-11-22T00:06:56.094Z,992.49
2018-11-22T00:07:56.089Z,992.48
2018-11-22T00:08:56.072Z,992.48
2018-11-22T00:09:56.054Z,992.51
2018-11-22T00:10:56.047Z,992.52
2018-11-22T00:11:56.040Z,992.52
2018-11-22T00:12:56.026Z,992.57
2018-11-22T00:13:56.018Z,992.58
2018-11-22T00:14:56.005Z,992.58
2018-11-22T00:15:55.996Z,992.55
2018-11-22T00:16:55.988Z,992.54
2018-11-22T00:17:55.978Z,992.51
2018-11-22T00:18:55.977Z,992.54
2018-11-22T00:19:55.958Z,992.6
2018-11-22T00:20:55.949Z,992.61
2018-11-22T00:21:55.940Z,992.63
2018-11-22T00:22:55.932Z,992.54
2018-11-22T00:23:55.927Z,992.57
2018-11-22T00:24:55.912Z,992.57
2018-11-22T00:25:55.911Z,992.55
2018-11-22T00:26:55.892Z,992.58
2018-11-22T00:27:55.882Z,992.59
2018-11-22T00:28:55.873Z,992.59
2018-11-22T00:29:55.865Z,992.59
2018-11-22T00:30:55.861Z,992.6
2018-11-22T00:31:55.843Z,992.55
2018-11-22T00:32:55.834Z,992.63
2018-11-22T00:33:55.824Z,992.63
2018-11-22T00:34:55.814Z,992.63
2018-11-22T00:35:55.806Z,992.62
2018-11-22T00:36:55.805Z,992.6
2018-11-22T00:37:55.786Z,992.64
2018-11-22T00:38:55.775Z,992.62
2018-11-22T00:39:55.766Z,992.7
2018-11-22T00:40:55.760Z,992.69
2018-11-22T00:41:55.747Z,992.73
2018-11-22T00:42:55.746Z,992.7
2018-11-22T00:43:55.728Z,992.68
2018-11-22T00:44:55.716Z,992.66
2018-11-22T00:45:55.708Z,992.66
2018-11-22T00:46:55.701Z,992.65
2018-11-22T00:47:55.696Z,992.68
2018-11-22T00:48:55.684Z,992.66
2018-11-22T00:49:55.931Z,992.71
2018-11-22T00:50:55.664Z,992.68
2018-11-22T00:51:55.658Z,992.66
2018-11-22T00:52:55.638Z,992.69
2018-11-22T00:53:55.632Z,992.73
2018-11-22T00:54:55.623Z,992.74
2018-11-22T00:55:55.611Z,992.72
2018-11-22T00:56:55.600Z,992.74
2018-11-22T00:57:55.591Z,992.74
2018-11-22T00:58:55.581Z,992.76
2018-11-22T00:59:55.591Z,992.78
2018-11-22T01:00:55.564Z,992.8
2018-11-22T01:01:55.552Z,992.83
2018-11-22T01:02:55.543Z,992.86
2018-11-22T01:03:55.533Z,992.86
2018-11-22T01:04:55.523Z,992.86
2018-11-22T01:05:55.519Z,992.87
2018-11-22T01:06:55.503Z,992.89
2018-11-22T01:07:55.493Z,992.89
2018-11-22T01:08:55.483Z,992.91
2018-11-22T01:09:55.480Z,992.92
2018-11-22T01:10:55.466Z,992.94
2018-11-22T01:11:55.501Z,992.97
2018-11-22T01:12:55.443Z,992.93
2018-11-22T01:13:55.435Z,992.98
2018-11-22T01:14:55.425Z,992.97
2018-11-22T01:15:55.415Z,992.96
2018-11-22T01:16:55.411Z,992.91
2018-11-22T01:17:55.420Z,992.9
2018-11-22T01:18:55.422Z,992.94
2018-11-22T01:19:55.375Z,992.96
2018-11-22T01:20:55.367Z,992.91
2018-11-22T01:21:55.359Z,992.96
2018-11-22T01:22:55.355Z,992.95
2018-11-22T01:23:55.338Z,992.96
2018-11-22T01:24:55.326Z,992.93
2018-11-22T01:25:55.317Z,992.92
2018-11-22T01:26:55.307Z,992.97
2018-11-22T01:27:55.298Z,992.98
2018-11-22T01:28:55.290Z,992.95
2018-11-22T01:29:55.281Z,992.98
2018-11-22T01:30:55.270Z,992.96
2018-11-22T01:31:55.262Z,992.98
2018-11-22T01:32:55.253Z,993.01
2018-11-22T01:33:55.238Z,992.95
2018-11-22T01:34:55.232Z,992.98
2018-11-22T01:35:55.220Z,992.96
2018-11-22T01:36:55.211Z,992.97
2018-11-22T01:37:55.201Z,992.93
2018-11-22T01:38:55.201Z,992.94
2018-11-22T01:39:55.343Z,992.91
2018-11-22T01:40:55.175Z,992.89
2018-11-22T01:41:55.179Z,992.91
2018-11-22T01:42:55.153Z,992.86
2018-11-22T01:43:55.141Z,992.87
2018-11-22T01:44:55.151Z,992.87
2018-11-22T01:45:55.124Z,992.85
2018-11-22T01:46:55.134Z,992.85
2018-11-22T01:47:55.107Z,992.85
2018-11-22T01:48:55.095Z,992.82
2018-11-22T01:49:55.108Z,992.83
2018-11-22T01:50:55.085Z,992.81
2018-11-22T01:51:55.065Z,992.86
2018-11-22T01:52:55.071Z,992.84
2018-11-22T01:53:55.064Z,992.8
2018-11-22T01:54:55.042Z,992.81
2018-11-22T01:55:55.046Z,992.84
2018-11-22T01:56:55.037Z,992.84
2018-11-22T01:57:55.022Z,992.83
2018-11-22T01:58:55.009Z,992.83
2018-11-22T01:59:54.995Z,992.84
2018-11-22T02:00:54.983Z,992.82
2018-11-22T02:01:54.980Z,992.8
2018-11-22T02:02:54.977Z,992.81
2018-11-22T02:03:54.961Z,992.81
2018-11-22T02:04:54.941Z,992.82
2018-11-22T02:05:54.950Z,992.8
2018-11-22T02:06:54.930Z,992.79
2018-11-22T02:07:54.918Z,992.79
2018-11-22T02:08:54.904Z,992.82
2018-11-22T02:09:54.897Z,992.77
2018-11-22T02:10:54.889Z,992.8
2018-11-22T02:11:54.874Z,992.82
2018-11-22T02:12:54.870Z,992.83
2018-11-22T02:13:54.860Z,992.79
2018-11-22T02:14:54.849Z,992.79
2018-11-22T02:15:54.836Z,992.79
2018-11-22T02:16:54.844Z,992.8
2018-11-22T02:17:54.816Z,992.75
2018-11-22T02:18:54.805Z,992.72
2018-11-22T02:19:54.816Z,992.77
2018-11-22T02:20:54.788Z,992.73
2018-11-22T02:21:54.777Z,992.74
2018-11-22T02:22:54.766Z,992.73
2018-11-22T02:23:54.771Z,992.76
2018-11-22T02:24:54.747Z,992.75
2018-11-22T02:25:54.735Z,992.78
2018-11-22T02:26:54.734Z,992.78
2018-11-22T02:27:54.732Z,992.75
2018-11-22T02:28:54.705Z,992.76
2018-11-22T02:29:54.707Z,992.79
2018-11-22T02:30:54.688Z,992.82
2018-11-22T02:31:54.684Z,992.77
2018-11-22T02:32:54.664Z,992.81
2018-11-22T02:33:54.657Z,992.79
2018-11-22T02:34:54.657Z,992.76
2018-11-22T02:35:54.640Z,992.79
2018-11-22T02:36:54.636Z,992.78
2018-11-22T02:37:54.617Z,992.81
2018-11-22T02:38:54.608Z,992.8
2018-11-22T02:39:54.596Z,992.81
2018-11-22T02:40:54.588Z,992.8
2018-11-22T02:41:54.579Z,992.77
2018-11-22T02:42:54.580Z,992.81
2018-11-22T02:43:54.562Z,992.82
2018-11-22T02:44:54.549Z,992.83
2018-11-22T02:45:54.542Z,992.83
2018-11-22T02:46:54.531Z,992.8
2018-11-22T02:47:54.521Z,992.82
2018-11-22T02:48:54.523Z,992.78
2018-11-22T02:49:54.501Z,992.8
2018-11-22T02:50:54.492Z,992.81
2018-11-22T02:51:54.481Z,992.75
2018-11-22T02:52:54.477Z,992.78
2018-11-22T02:53:54.463Z,992.81
2018-11-22T02:54:54.458Z,992.84
2018-11-22T02:55:54.458Z,992.79
2018-11-22T02:56:54.434Z,992.74
2018-11-22T02:57:54.422Z,992.82
2018-11-22T02:58:54.415Z,992.78
2018-11-22T02:59:54.406Z,992.77
2018-11-22T03:00:54.402Z,992.81
2018-11-22T03:01:54.396Z,992.77
2018-11-22T03:02:54.376Z,992.77
2018-11-22T03:03:54.385Z,992.77
2018-11-22T03:04:54.357Z,992.8
2018-11-22T03:05:54.348Z,992.79
2018-11-22T03:06:54.337Z,992.79
2018-11-22T03:07:54.327Z,992.8
2018-11-22T03:08:54.319Z,992.79
2018-11-22T03:09:54.312Z,992.79
2018-11-22T03:10:54.305Z,992.79
2018-11-22T03:11:54.291Z,992.77
2018-11-22T03:12:54.286Z,992.75
2018-11-22T03:13:54.270Z,992.74
2018-11-22T03:14:54.265Z,992.77
2018-11-22T03:15:54.250Z,992.79
2018-11-22T03:16:54.241Z,992.75
2018-11-22T03:17:54.244Z,992.72
2018-11-22T03:18:54.227Z,992.77
2018-11-22T03:19:54.218Z,992.76
2018-11-22T03:20:54.204Z,992.78
2018-11-22T03:21:54.193Z,992.78
2018-11-22T03:22:54.183Z,992.78
2018-11-22T03:23:54.177Z,992.78
2018-11-22T03:24:54.178Z,992.76
2018-11-22T03:25:54.153Z,992.74
2018-11-22T03:26:54.152Z,992.76
2018-11-22T03:27:54.135Z,992.76
2018-11-22T03:28:54.128Z,992.77
2018-11-22T03:29:54.119Z,992.76
2018-11-22T03:30:54.109Z,992.8
2018-11-22T03:31:54.097Z,992.77
2018-11-22T03:32:54.086Z,992.73
2018-11-22T03:33:54.077Z,992.76
2018-11-22T03:34:54.070Z,992.69
2018-11-22T03:35:54.059Z,992.71
2018-11-22T03:36:54.052Z,992.76
2018-11-22T03:37:54.062Z,992.78
2018-11-22T03:38:54.040Z,992.8
2018-11-22T03:39:54.027Z,992.76
2018-11-22T03:40:54.011Z,992.79
2018-11-22T03:41:54.003Z,992.74
2018-11-22T03:42:53.991Z,992.73
2018-11-22T03:43:53.988Z,992.73
2018-11-22T03:44:53.971Z,992.67
2018-11-22T03:45:53.966Z,992.72
2018-11-22T03:46:53.951Z,992.75
2018-11-22T03:47:53.943Z,992.79
2018-11-22T03:48:53.941Z,992.79
2018-11-22T03:49:53.933Z,992.85
2018-11-22T03:50:53.912Z,992.75
2018-11-22T03:51:53.902Z,992.79
2018-11-22T03:52:53.893Z,992.78
2018-11-22T03:53:53.885Z,992.77
2018-11-22T03:54:53.874Z,992.77
2018-11-22T03:55:53.868Z,992.76
2018-11-22T03:56:53.863Z,992.78
2018-11-22T03:57:53.847Z,992.77
2018-11-22T03:58:53.838Z,992.77
2018-11-22T03:59:53.841Z,992.78
2018-11-22T04:00:53.817Z,992.84
2018-11-22T04:01:53.809Z,992.77
2018-11-22T04:02:53.808Z,992.78
2018-11-22T04:03:53.787Z,992.79
2018-11-22T04:04:53.778Z,992.78
2018-11-22T04:05:53.767Z,992.77
2018-11-22T04:06:53.762Z,992.73
2018-11-22T04:07:53.754Z,992.78
2018-11-22T04:08:53.742Z,992.77
2018-11-22T04:09:53.734Z,992.84
2018-11-22T04:10:53.721Z,992.8
2018-11-22T04:11:53.714Z,992.79
2018-11-22T04:12:53.833Z,992.81
2018-11-22T04:13:53.692Z,992.76
2018-11-22T04:14:53.688Z,992.77
2018-11-22T04:15:53.672Z,992.76
2018-11-22T04:16:53.664Z,992.75
2018-11-22T04:17:53.661Z,992.78
2018-11-22T04:18:53.643Z,992.81
2018-11-22T04:19:53.636Z,992.78
2018-11-22T04:20:53.630Z,992.8
2018-11-22T04:21:53.613Z,992.77
2018-11-22T04:22:53.605Z,992.82
2018-11-22T04:23:53.595Z,992.8
2018-11-22T04:24:53.588Z,992.8
2018-11-22T04:25:53.592Z,992.82
2018-11-22T04:26:53.568Z,992.78
2018-11-22T04:27:53.557Z,992.81
2018-11-22T04:28:53.546Z,992.81
2018-11-22T04:29:53.534Z,992.82
2018-11-22T04:30:53.526Z,992.79
2018-11-22T04:31:53.516Z,992.77
2018-11-22T04:32:53.507Z,992.82
2018-11-22T04:33:53.497Z,992.78
2018-11-22T04:34:53.494Z,992.81
2018-11-22T04:35:53.485Z,992.83
2018-11-22T04:36:53.470Z,992.85
2018-11-22T04:37:53.459Z,992.81
2018-11-22T04:38:53.447Z,992.76
2018-11-22T04:39:53.440Z,992.8
2018-11-22T04:40:53.448Z,992.79
2018-11-22T04:41:53.419Z,992.8
2018-11-22T04:42:53.410Z,992.78
2018-11-22T04:43:53.402Z,992.83
2018-11-22T04:44:53.410Z,992.78
2018-11-22T04:45:53.387Z,992.78
2018-11-22T04:46:53.372Z,992.79
2018-11-22T04:47:53.371Z,992.79
2018-11-22T04:48:53.353Z,992.78
2018-11-22T04:49:53.346Z,992.83
2018-11-22T04:50:53.335Z,992.84
2018-11-22T04:51:53.328Z,992.82
2018-11-22T04:52:53.333Z,992.85
2018-11-22T04:53:53.307Z,992.84
2018-11-22T04:54:53.299Z,992.82
2018-11-22T04:55:53.287Z,992.84
2018-11-22T04:56:53.277Z,992.87
2018-11-22T04:57:57.909Z,992.87
2018-11-22T04:58:53.278Z,992.87
2018-11-22T04:59:53.258Z,992.84
2018-11-22T05:00:53.238Z,992.87
2018-11-22T05:01:53.230Z,992.82
2018-11-22T05:02:53.220Z,992.84
2018-11-22T05:03:53.216Z,992.84
2018-11-22T05:04:53.203Z,992.82
2018-11-22T05:05:53.202Z,992.85
2018-11-22T05:06:53.198Z,992.85
2018-11-22T05:07:53.181Z,992.89
2018-11-22T05:08:53.164Z,992.87
2018-11-22T05:09:53.152Z,992.9
2018-11-22T05:10:53.146Z,992.88
2018-11-22T05:11:53.145Z,992.89
2018-11-22T05:12:53.135Z,992.88
2018-11-22T05:13:53.114Z,992.9
2018-11-22T05:14:53.105Z,992.89
2018-11-22T05:15:53.096Z,992.91
2018-11-22T05:16:53.089Z,992.93
2018-11-22T05:17:53.078Z,992.89
2018-11-22T05:18:53.067Z,992.94
2018-11-22T05:19:53.060Z,992.92
2018-11-22T05:20:53.052Z,992.87
2018-11-22T05:21:53.040Z,992.93
2018-11-22T05:22:53.030Z,992.85
2018-11-22T05:23:53.020Z,992.85
2018-11-22T05:24:53.032Z,992.82
2018-11-22T05:25:53.102Z,992.82
2018-11-22T05:26:53.001Z,992.86
2018-11-22T05:27:52.981Z,992.82
2018-11-22T05:28:52.970Z,992.88
2018-11-22T05:29:52.963Z,992.83
2018-11-22T05:30:52.952Z,992.86
2018-11-22T05:31:52.943Z,992.87
2018-11-22T05:32:52.933Z,992.84
2018-11-22T05:33:52.927Z,992.84
2018-11-22T05:34:52.913Z,992.84
2018-11-22T05:35:52.908Z,992.84
2018-11-22T05:36:52.895Z,992.86
2018-11-22T05:37:52.887Z,992.88
2018-11-22T05:38:52.876Z,992.86
2018-11-22T05:39:52.866Z,992.88
2018-11-22T05:40:52.860Z,992.94
2018-11-22T05:41:52.847Z,992.92
2018-11-22T05:42:52.837Z,992.95
2018-11-22T05:43:52.827Z,992.95
2018-11-22T05:44:52.819Z,992.9
2018-11-22T05:45:52.828Z,992.93
2018-11-22T05:46:52.803Z,992.94
2018-11-22T05:47:52.791Z,992.94
2018-11-22T05:48:52.784Z,992.94
2018-11-22T05:49:52.770Z,992.94
2018-11-22T05:50:52.762Z,992.95
2018-11-22T05:51:52.752Z,992.97
2018-11-22T05:52:52.742Z,992.97
2018-11-22T05:53:52.739Z,992.99
2018-11-22T05:54:52.723Z,992.97
2018-11-22T05:55:52.712Z,992.95
2018-11-22T05:56:52.704Z,992.95
2018-11-22T05:57:52.697Z,992.96
2018-11-22T05:58:52.685Z,992.98
2018-11-22T05:59:52.682Z,992.99
2018-11-22T06:00:52.668Z,992.99
2018-11-22T06:01:52.656Z,993.02
2018-11-22T06:02:52.648Z,992.98
2018-11-22T06:03:52.643Z,993.05
2018-11-22T06:04:52.627Z,993
2018-11-22T06:05:52.624Z,992.99
2018-11-22T06:06:52.639Z,993.02
2018-11-22T06:07:52.600Z,992.98
2018-11-22T06:08:52.589Z,993.01
2018-11-22T06:09:52.577Z,992.99
2018-11-22T06:10:52.569Z,993.07
2018-11-22T06:11:52.560Z,993.02
2018-11-22T06:12:52.549Z,993.06
2018-11-22T06:13:52.539Z,993.08
2018-11-22T06:14:52.535Z,993.01
2018-11-22T06:15:52.524Z,993.01
2018-11-22T06:16:52.509Z,992.99
2018-11-22T06:17:52.501Z,992.96
2018-11-22T06:18:52.493Z,992.96
2018-11-22T06:19:52.484Z,992.95
2018-11-22T06:20:52.482Z,992.96
2018-11-22T06:21:52.463Z,992.93
2018-11-22T06:22:52.457Z,992.91
2018-11-22T06:23:52.443Z,992.92
2018-11-22T06:24:52.435Z,992.9
2018-11-22T06:25:52.425Z,992.88
2018-11-22T06:26:52.426Z,992.9
2018-11-22T06:27:52.402Z,992.94
2018-11-22T06:28:52.393Z,992.87
2018-11-22T06:29:52.393Z,992.9
2018-11-22T06:30:52.381Z,992.92
2018-11-22T06:31:52.366Z,992.95
2018-11-22T06:32:52.372Z,992.94
2018-11-22T06:33:52.345Z,992.97
2018-11-22T06:34:52.442Z,992.95
2018-11-22T06:35:52.325Z,992.96
2018-11-22T06:36:52.314Z,992.99
2018-11-22T06:37:52.306Z,993.01
2018-11-22T06:38:52.294Z,993.01
2018-11-22T06:39:52.289Z,992.97
2018-11-22T06:40:52.275Z,992.95
2018-11-22T06:41:52.265Z,992.99
2018-11-22T06:42:52.258Z,992.93
2018-11-22T06:43:52.253Z,992.99
2018-11-22T06:44:52.237Z,992.97
2018-11-22T06:45:52.238Z,992.99
2018-11-22T06:46:52.228Z,993.02
2018-11-22T06:47:52.214Z,993
2018-11-22T06:48:52.207Z,992.99
2018-11-22T06:49:52.191Z,993
2018-11-22T06:50:52.182Z,992.94
2018-11-22T06:51:52.176Z,992.92
2018-11-22T06:52:52.156Z,992.95
2018-11-22T06:53:52.147Z,992.95
2018-11-22T06:54:52.141Z,992.96
2018-11-22T06:55:52.132Z,992.95
2018-11-22T06:56:52.120Z,993.02
2018-11-22T06:57:52.109Z,992.98
2018-11-22T06:58:52.099Z,992.96
2018-11-22T06:59:52.088Z,993
2018-11-22T07:00:52.077Z,993.01
2018-11-22T07:01:52.070Z,993.02
2018-11-22T07:02:52.062Z,993.01
2018-11-22T07:03:52.053Z,993.06
2018-11-22T07:04:52.040Z,993.03
2018-11-22T07:05:52.031Z,993.08
2018-11-22T07:06:52.020Z,993.09
2018-11-22T07:07:52.009Z,993.09
2018-11-22T07:08:52.011Z,993.08
2018-11-22T07:09:51.993Z,993.07
2018-11-22T07:10:51.982Z,993.05
2018-11-22T07:11:51.976Z,993.07
2018-11-22T07:12:51.963Z,993.03
2018-11-22T07:13:51.955Z,993.03
2018-11-22T07:14:51.944Z,993.08
2018-11-22T07:15:51.933Z,993.07
2018-11-22T07:16:51.926Z,993.1
2018-11-22T07:17:51.913Z,993.09
2018-11-22T07:18:51.904Z,993.09
2018-11-22T07:19:51.898Z,993.1
2018-11-22T07:20:51.902Z,993.09
2018-11-22T07:21:51.890Z,993.06
2018-11-22T07:22:51.869Z,993.04
2018-11-22T07:23:51.858Z,993.09
2018-11-22T07:24:51.865Z,993.08
2018-11-22T07:25:51.844Z,993.06
2018-11-22T07:26:51.838Z,993.08
2018-11-22T07:27:51.823Z,993.07
2018-11-22T07:28:51.812Z,993.08
2018-11-22T07:29:51.805Z,993.1
2018-11-22T07:30:51.802Z,993.07
2018-11-22T07:31:51.815Z,993.09
2018-11-22T07:32:51.776Z,993.07
2018-11-22T07:33:51.768Z,993.06
2018-11-22T07:34:51.759Z,993.04
2018-11-22T07:35:51.748Z,993.06
2018-11-22T07:36:51.738Z,993.04
2018-11-22T07:37:51.734Z,993.07
2018-11-22T07:38:51.720Z,993.05
2018-11-22T07:39:51.712Z,993.05
2018-11-22T07:40:51.703Z,993.06
2018-11-22T07:41:51.720Z,993.06
2018-11-22T07:42:51.686Z,993.09
2018-11-22T07:43:51.693Z,993.07
2018-11-22T07:44:51.668Z,993.09
2018-11-22T07:45:51.658Z,993.09
2018-11-22T07:46:51.650Z,993.1
2018-11-22T07:47:51.643Z,993.1
2018-11-22T07:48:51.631Z,993.1
2018-11-22T07:49:51.627Z,993.11
2018-11-22T07:50:51.618Z,993.1
2018-11-22T07:51:51.627Z,993.12
2018-11-22T07:52:52.339Z,993.12
2018-11-22T07:53:51.591Z,993.07
2018-11-22T07:54:51.584Z,993.1
2018-11-22T07:55:51.578Z,993.11
2018-11-22T07:56:51.566Z,993.13
2018-11-22T07:57:51.597Z,993.14
2018-11-22T07:58:51.546Z,993.14
2018-11-22T07:59:51.555Z,993.14
2018-11-22T08:00:51.529Z,993.12
2018-11-22T08:01:51.518Z,993.1
2018-11-22T08:02:51.512Z,993.1
2018-11-22T08:03:51.508Z,993.11
2018-11-22T08:04:51.525Z,993.11
2018-11-22T08:05:51.488Z,993.14
2018-11-22T08:06:51.478Z,993.13
2018-11-22T08:07:51.469Z,993.17
2018-11-22T08:08:51.460Z,993.16
2018-11-22T08:09:51.456Z,993.13
2018-11-22T08:10:51.444Z,993.12
2018-11-22T08:11:51.435Z,993.13
2018-11-22T08:12:51.467Z,993.18
2018-11-22T08:13:51.416Z,993.2
2018-11-22T08:14:51.418Z,993.19
2018-11-22T08:15:51.401Z,993.18
2018-11-22T08:16:51.396Z,993.22
2018-11-22T08:17:51.388Z,993.22
2018-11-22T08:18:51.378Z,993.23
2018-11-22T08:19:51.374Z,993.21
2018-11-22T08:20:51.363Z,993.18
2018-11-22T08:21:51.354Z,993.21
2018-11-22T08:22:51.344Z,993.27
2018-11-22T08:23:53.192Z,993.26
2018-11-22T08:24:51.350Z,993.31
2018-11-22T08:25:51.326Z,993.28
2018-11-22T08:26:51.316Z,993.27
2018-11-22T08:27:51.308Z,993.27
2018-11-22T08:28:51.300Z,993.28
2018-11-22T08:29:51.292Z,993.3
2018-11-22T08:30:51.295Z,993.3
2018-11-22T08:31:51.275Z,993.31
2018-11-22T08:32:52.631Z,993.27
2018-11-22T08:33:51.262Z,993.35
2018-11-22T08:34:51.260Z,993.32
2018-11-22T08:35:51.251Z,993.32
2018-11-22T08:36:51.237Z,993.33
2018-11-22T08:37:51.241Z,993.3
2018-11-22T08:38:51.244Z,993.29
2018-11-22T08:39:51.222Z,993.32
2018-11-22T08:40:51.211Z,993.31
2018-11-22T08:41:51.202Z,993.29
2018-11-22T08:42:55.065Z,993.3
2018-11-22T08:43:51.187Z,993.29
2018-11-22T08:44:51.179Z,993.31
2018-11-22T08:45:51.178Z,993.3
2018-11-22T08:46:51.168Z,993.35
2018-11-22T08:47:51.163Z,993.37
2018-11-22T08:48:51.152Z,993.38
2018-11-22T08:49:51.379Z,993.37
2018-11-22T08:50:51.137Z,993.36
2018-11-22T08:51:51.132Z,993.37
2018-11-22T08:52:51.118Z,993.37
2018-11-22T08:53:51.110Z,993.32
2018-11-22T08:54:51.107Z,993.34
2018-11-22T08:55:51.098Z,993.36
2018-11-22T08:56:51.097Z,993.4
2018-11-22T08:57:51.180Z,993.35
2018-11-22T08:58:51.071Z,993.38
2018-11-22T08:59:51.082Z,993.43
2018-11-22T09:00:51.059Z,993.4
2018-11-22T09:01:51.049Z,993.42
2018-11-22T09:02:51.041Z,993.42
2018-11-22T09:03:51.042Z,993.46
2018-11-22T09:04:51.033Z,993.49
2018-11-22T09:05:51.022Z,993.47
2018-11-22T09:06:51.020Z,993.53
2018-11-22T09:07:51.022Z,993.5
2018-11-22T09:08:50.998Z,993.51
2018-11-22T09:09:50.987Z,993.49
2018-11-22T09:10:50.981Z,993.49
2018-11-22T09:11:50.971Z,993.52
2018-11-22T09:12:50.965Z,993.51
2018-11-22T09:13:50.960Z,993.51
2018-11-22T09:14:50.949Z,993.56
2018-11-22T09:15:50.938Z,993.57
2018-11-22T09:16:50.931Z,993.54
2018-11-22T09:17:50.924Z,993.49
2018-11-22T09:18:50.917Z,993.5
2018-11-22T09:19:50.906Z,993.51
2018-11-22T09:20:50.905Z,993.52
2018-11-22T09:21:50.893Z,993.53
2018-11-22T09:22:50.883Z,993.54
2018-11-22T09:23:50.873Z,993.55
2018-11-22T09:24:50.867Z,993.55
2018-11-22T09:25:50.875Z,993.5
2018-11-22T09:26:50.854Z,993.57
2018-11-22T09:27:50.842Z,993.59
2018-11-22T09:28:50.838Z,993.56
2018-11-22T09:29:50.839Z,993.57
2018-11-22T09:30:50.817Z,993.58
2018-11-22T09:31:50.810Z,993.57
2018-11-22T09:32:50.803Z,993.58
2018-11-22T09:33:50.842Z,993.62
2018-11-22T09:34:50.786Z,993.63
2018-11-22T09:35:50.777Z,993.61
2018-11-22T09:36:50.769Z,993.6
2018-11-22T09:37:50.761Z,993.63
2018-11-22T09:38:50.753Z,993.63
2018-11-22T09:39:50.746Z,993.62
2018-11-22T09:40:50.736Z,993.59
2018-11-22T09:41:50.732Z,993.63
2018-11-22T09:42:50.723Z,993.6
2018-11-22T09:43:50.713Z,993.62
2018-11-22T09:44:50.700Z,993.61
2018-11-22T09:45:50.711Z,993.61
2018-11-22T09:46:50.686Z,993.63
2018-11-22T09:47:50.680Z,993.65
2018-11-22T09:48:50.837Z,993.61
2018-11-22T09:49:50.665Z,993.6
2018-11-22T09:50:50.668Z,993.63
2018-11-22T09:51:50.648Z,993.58
2018-11-22T09:52:50.643Z,993.58
2018-11-22T09:53:50.634Z,993.57
2018-11-22T09:54:50.874Z,993.58
2018-11-22T09:55:50.623Z,993.54
2018-11-22T09:56:50.617Z,993.58
2018-11-22T09:57:50.602Z,993.56
2018-11-22T09:58:50.598Z,993.55
2018-11-22T09:59:50.592Z,993.5
2018-11-22T10:00:50.577Z,993.55
2018-11-22T10:01:50.572Z,993.54
2018-11-22T10:02:50.599Z,993.5
2018-11-22T10:03:50.555Z,993.52
2018-11-22T10:04:50.768Z,993.53
2018-11-22T10:05:50.651Z,993.56
2018-11-22T10:06:50.535Z,993.53
2018-11-22T10:07:50.526Z,993.57
2018-11-22T10:08:50.519Z,993.51
2018-11-22T10:09:50.510Z,993.53
2018-11-22T10:10:50.505Z,993.57
2018-11-22T10:11:50.507Z,993.53
2018-11-22T10:12:50.491Z,993.54
2018-11-22T10:13:50.482Z,993.53
2018-11-22T10:14:50.474Z,993.58
2018-11-22T10:15:50.467Z,993.57
2018-11-22T10:16:50.511Z,993.56
2018-11-22T10:17:50.452Z,993.53
2018-11-22T10:18:50.446Z,993.52
2018-11-22T10:19:50.439Z,993.54
2018-11-22T10:20:50.430Z,993.51
2018-11-22T10:21:50.427Z,993.48
2018-11-22T10:22:50.426Z,993.47
2018-11-22T10:23:50.519Z,993.43
2018-11-22T10:24:50.400Z,993.47
2018-11-22T10:25:50.395Z,993.45
2018-11-22T10:26:50.392Z,993.4
2018-11-22T10:27:50.377Z,993.44
2018-11-22T10:28:50.377Z,993.4
2018-11-22T10:29:50.378Z,993.38
2018-11-22T10:30:50.358Z,993.43
2018-11-22T10:31:50.390Z,993.41
2018-11-22T10:32:50.348Z,993.42
2018-11-22T10:33:50.342Z,993.44
2018-11-22T10:34:50.326Z,993.39
2018-11-22T10:35:50.320Z,993.41
2018-11-22T10:36:50.312Z,993.46
2018-11-22T10:37:50.430Z,993.47
2018-11-22T10:38:50.298Z,993.43
2018-11-22T10:39:50.290Z,993.44
2018-11-22T10:40:50.281Z,993.42
2018-11-22T10:41:50.274Z,993.48
2018-11-22T10:42:50.296Z,993.47
2018-11-22T10:43:50.260Z,993.46
2018-11-22T10:44:50.253Z,993.44
2018-11-22T10:45:50.248Z,993.42
2018-11-22T10:46:50.241Z,993.4
2018-11-22T10:47:50.250Z,993.37
2018-11-22T10:48:50.231Z,993.39
2018-11-22T10:49:51.336Z,993.39
2018-11-22T10:50:50.209Z,993.41
2018-11-22T10:51:50.214Z,993.38
2018-11-22T10:52:50.196Z,993.4
2018-11-22T10:53:50.192Z,993.38
2018-11-22T10:54:50.187Z,993.4
2018-11-22T10:55:50.214Z,993.38
2018-11-22T10:56:50.169Z,993.36
2018-11-22T10:57:53.758Z,993.38
2018-11-22T10:58:50.152Z,993.38
2018-11-22T10:59:50.145Z,993.41
2018-11-22T11:00:50.139Z,993.38
2018-11-22T11:01:50.133Z,993.4
2018-11-22T11:02:50.123Z,993.4
2018-11-22T11:03:50.120Z,993.39
2018-11-22T11:04:50.111Z,993.4
2018-11-22T11:05:50.104Z,993.36
2018-11-22T11:06:50.097Z,993.33
2018-11-22T11:07:50.093Z,993.36
2018-11-22T11:08:50.081Z,993.38
2018-11-22T11:09:50.088Z,993.37
2018-11-22T11:10:50.077Z,993.4
2018-11-22T11:11:50.063Z,993.38
2018-11-22T11:12:50.056Z,993.41
2018-11-22T11:13:50.050Z,993.37
2018-11-22T11:14:50.042Z,993.32
2018-11-22T11:15:50.036Z,993.34
2018-11-22T11:16:50.032Z,993.32
2018-11-22T11:17:50.020Z,993.3
2018-11-22T11:18:50.014Z,993.32
2018-11-22T11:19:50.008Z,993.3
2018-11-22T11:20:50.004Z,993.34
2018-11-22T11:21:49.997Z,993.34
2018-11-22T11:22:49.990Z,993.35
2018-11-22T11:23:49.977Z,993.38
2018-11-22T11:24:49.971Z,993.3
2018-11-22T11:25:49.964Z,993.34
2018-11-22T11:26:49.972Z,993.32
2018-11-22T11:27:49.960Z,993.34
2018-11-22T11:28:49.947Z,993.3
2018-11-22T11:29:49.940Z,993.35
2018-11-22T11:30:49.933Z,993.3
2018-11-22T11:31:49.926Z,993.34
2018-11-22T11:32:49.920Z,993.37
2018-11-22T11:33:49.921Z,993.38
2018-11-22T11:34:49.905Z,993.34
2018-11-22T11:35:49.902Z,993.37
2018-11-22T11:36:49.895Z,993.34
2018-11-22T11:37:49.887Z,993.34
2018-11-22T11:38:49.881Z,993.3
2018-11-22T11:39:49.881Z,993.3
2018-11-22T11:40:49.868Z,993.24
2018-11-22T11:41:49.864Z,993.22
2018-11-22T11:42:49.862Z,993.27
2018-11-22T11:43:49.863Z,993.22
2018-11-22T11:44:49.839Z,993.26
2018-11-22T11:45:49.835Z,993.19
2018-11-22T11:46:49.832Z,993.19
2018-11-22T11:47:49.822Z,993.18
2018-11-22T11:48:49.814Z,993.16
2018-11-22T11:49:49.806Z,993.2
2018-11-22T11:50:49.801Z,993.13
2018-11-22T11:51:49.803Z,993.14
2018-11-22T11:52:49.786Z,993.07
2018-11-22T11:53:49.790Z,993.07
2018-11-22T11:54:49.775Z,993.08
2018-11-22T11:55:49.768Z,993.07
2018-11-22T11:56:49.769Z,993.07
2018-11-22T11:57:49.763Z,993.11
2018-11-22T11:58:49.747Z,993.07
2018-11-22T11:59:49.748Z,993.13
2018-11-22T12:00:49.733Z,993.07
2018-11-22T12:01:49.727Z,993.08
2018-11-22T12:02:49.737Z,993.08
2018-11-22T12:03:49.714Z,993.08
2018-11-22T12:04:49.713Z,993.08
2018-11-22T12:05:49.710Z,993.02
2018-11-22T12:06:49.697Z,993.01
2018-11-22T12:07:49.689Z,992.97
2018-11-22T12:08:49.725Z,992.97
2018-11-22T12:09:50.595Z,992.93
2018-11-22T12:10:49.672Z,992.92
2018-11-22T12:11:49.665Z,992.93
2018-11-22T12:12:49.663Z,992.94
2018-11-22T12:13:49.654Z,992.94
2018-11-22T12:14:49.644Z,992.95
2018-11-22T12:16:49.635Z,992.91
2018-11-22T12:17:49.628Z,992.93
2018-11-22T12:18:49.622Z,992.89
2018-11-22T12:19:49.617Z,992.89
2018-11-22T12:20:49.618Z,992.89
2018-11-22T12:21:49.605Z,992.86
2018-11-22T12:22:49.599Z,992.87
2018-11-22T12:23:49.593Z,992.91
2018-11-22T12:24:49.584Z,992.92
2018-11-22T12:25:49.580Z,992.88
2018-11-22T12:26:49.580Z,992.9
2018-11-22T12:27:49.568Z,992.89
2018-11-22T12:28:49.566Z,992.89
2018-11-22T12:29:49.560Z,992.89
2018-11-22T12:30:49.550Z,992.9
2018-11-22T12:31:49.545Z,992.91
2018-11-22T12:32:49.537Z,992.88